Time;durP1;ratioP1;P1;durP2;ratioP2;P2;SDS_P1;SDS_P2;PMS_P1;PMS_P2;Temp;Humidity;BMP_temperature;BMP_pressure;BME280_temperature;BME280_humidity;BME280_pressure;Samples;Min_cycle;Max_cycle;Signal;HPM_P1;HPM_P2
2024/03/23 00:01:08;;;;;;;32.50;8.10;;;;;;;;;;5135766;28;20268;-55
2024/03/23 00:03:34;;;;;;;26.40;8.18;;;;;;;;;;5135581;28;20031;-54
2024/03/23 00:06:00;;;;;;;24.08;7.18;;;;;;;;;;5128715;28;20020;-56
2024/03/23 00:08:26;;;;;;;22.20;6.97;;;;;;;;;;5135309;28;20034;-55
2024/03/23 00:10:52;;;;;;;18.92;7.28;;;;;;;;;;5134673;28;20036;-57
2024/03/23 00:13:18;;;;;;;30.25;7.32;;;;;;;;;;5131345;28;20028;-55
2024/03/23 00:15:44;;;;;;;23.00;7.50;;;;;;;;;;5128983;28;20061;-55
2024/03/23 00:18:10;;;;;;;35.80;7.85;;;;;;;;;;5128528;28;20079;-53
2024/03/23 00:20:36;;;;;;;33.38;8.18;;;;;;;;;;5125827;28;20035;-52
2024/03/23 00:23:02;;;;;;;40.47;8.52;;;;;;;;;;5135142;28;20024;-51
2024/03/23 00:25:29;;;;;;;25.63;7.45;;;;;;;;;;5135204;28;20031;-52
2024/03/23 00:27:54;;;;;;;26.95;7.55;;;;;;;;;;5127485;28;20033;-54
2024/03/23 00:30:21;;;;;;;32.63;7.80;;;;;;;;;;5134624;28;20031;-56
2024/03/23 00:32:47;;;;;;;22.05;6.95;;;;;;;;;;5130168;28;20039;-56
2024/03/23 00:35:12;;;;;;;29.40;8.38;;;;;;;;;;5134431;28;20043;-55
2024/03/23 00:37:38;;;;;;;27.35;7.47;;;;;;;;;;5126440;28;20061;-53
2024/03/23 00:40:04;;;;;;;42.70;9.95;;;;;;;;;;5131132;28;20069;-56
2024/03/23 00:42:30;;;;;;;39.17;9.45;;;;;;;;;;5115654;28;20027;-52
2024/03/23 00:44:56;;;;;;;32.78;9.38;;;;;;;;;;5131929;28;20023;-54
2024/03/23 00:47:23;;;;;;;20.70;6.72;;;;;;;;;;5132334;28;20028;-55
2024/03/23 00:49:48;;;;;;;34.95;10.60;;;;;;;;;;5134044;28;20045;-53
2024/03/23 00:52:14;;;;;;;30.55;8.63;;;;;;;;;;5132479;28;20069;-52
2024/03/23 00:54:39;;;;;;;39.80;10.93;;;;;;;;;;5127115;28;20023;-50
2024/03/23 00:57:05;;;;;;;44.17;10.83;;;;;;;;;;5132974;28;20039;-55
2024/03/23 00:59:31;;;;;;;51.08;13.65;;;;;;;;;;5126818;28;20031;-53
2024/03/23 01:01:56;;;;;;;43.30;12.80;;;;;;;;;;5123483;28;20034;-54
2024/03/23 01:04:21;;;;;;;61.10;15.35;;;;;;;;;;5128029;28;20032;-55
2024/03/23 01:06:47;;;;;;;61.38;17.67;;;;;;;;;;5124885;28;20104;-55
2024/03/23 01:09:13;;;;;;;61.83;17.92;;;;;;;;;;5133534;28;20062;-53
2024/03/23 01:11:39;;;;;;;51.53;14.35;;;;;;;;;;5134971;28;20039;-55
2024/03/23 01:14:06;;;;;;;39.72;12.63;;;;;;;;;;5129081;28;20028;-57
2024/03/23 01:16:31;;;;;;;56.33;13.80;;;;;;;;;;5133317;28;20096;-56
2024/03/23 01:18:57;;;;;;;45.08;11.75;;;;;;;;;;5128650;28;20019;-55
2024/03/23 01:21:22;;;;;;;38.80;10.23;;;;;;;;;;5124818;28;20106;-54
2024/03/23 01:23:47;;;;;;;25.43;8.97;;;;;;;;;;5111500;28;20031;-55
2024/03/23 01:26:13;;;;;;;38.03;9.57;;;;;;;;;;5128615;28;20040;-57
2024/03/23 01:28:39;;;;;;;32.50;9.90;;;;;;;;;;5135009;28;20028;-54
2024/03/23 01:31:05;;;;;;;38.75;10.82;;;;;;;;;;5132778;28;20083;-56
2024/03/23 01:33:30;;;;;;;48.70;13.40;;;;;;;;;;5133365;28;20028;-56
2024/03/23 01:35:56;;;;;;;73.27;19.97;;;;;;;;;;5133530;28;20286;-56
2024/03/23 01:38:22;;;;;;;39.25;12.73;;;;;;;;;;5135073;28;20411;-55
2024/03/23 01:40:47;;;;;;;44.90;10.53;;;;;;;;;;5133484;28;20027;-52
2024/03/23 01:43:12;;;;;;;49.43;12.13;;;;;;;;;;5126476;28;20050;-54
2024/03/23 01:45:38;;;;;;;40.45;12.98;;;;;;;;;;5132402;28;20051;-53
2024/03/23 01:48:04;;;;;;;38.08;9.80;;;;;;;;;;5131855;28;20047;-56
2024/03/23 01:50:33;;;;;;;42.42;10.55;;;;;;;;;;5128208;28;20053;-53
2024/03/23 01:52:58;;;;;;;35.40;9.90;;;;;;;;;;5135084;28;20032;-54
2024/03/23 01:55:23;;;;;;;36.70;10.60;;;;;;;;;;5130099;28;20279;-52
2024/03/23 01:57:49;;;;;;;41.30;12.10;;;;;;;;;;5134438;28;20062;-56
2024/03/23 02:00:15;;;;;;;31.77;9.65;;;;;;;;;;5133650;28;20053;-52
2024/03/23 02:02:42;;;;;;;34.10;10.00;;;;;;;;;;5124998;28;20032;-55
2024/03/23 02:05:08;;;;;;;42.43;12.13;;;;;;;;;;5134011;28;20027;-52
2024/03/23 02:07:34;;;;;;;32.08;10.85;;;;;;;;;;5130076;28;20295;-55
2024/03/23 02:10:00;;;;;;;30.67;11.30;;;;;;;;;;5131028;28;20027;-55
2024/03/23 02:12:25;;;;;;;54.15;17.45;;;;;;;;;;5127559;28;20040;-57
2024/03/23 02:14:51;;;;;;;67.87;17.00;;;;;;;;;;5132765;28;20027;-53
2024/03/23 02:17:16;;;;;;;71.57;16.00;;;;;;;;;;5129349;28;20354;-57
2024/03/23 02:19:41;;;;;;;58.70;15.40;;;;;;;;;;5132825;28;20279;-49
2024/03/23 02:22:07;;;;;;;58.40;18.77;;;;;;;;;;5128450;28;20485;-56
2024/03/23 02:24:34;;;;;;;69.77;17.40;;;;;;;;;;5135582;28;20038;-56
2024/03/23 02:26:59;;;;;;;42.03;15.30;;;;;;;;;;5137481;28;20035;-56
2024/03/23 02:29:24;;;;;;;37.97;11.73;;;;;;;;;;5134731;28;20042;-56
2024/03/23 02:31:50;;;;;;;33.10;11.13;;;;;;;;;;5136546;28;20023;-53
2024/03/23 02:34:15;;;;;;;29.20;9.13;;;;;;;;;;5137836;28;20035;-55
2024/03/23 02:36:41;;;;;;;43.65;9.93;;;;;;;;;;5119860;28;20043;-55
2024/03/23 02:39:06;;;;;;;31.33;9.48;;;;;;;;;;5112381;28;20023;-55
2024/03/23 02:41:32;;;;;;;26.38;8.75;;;;;;;;;;5133363;28;20035;-56
2024/03/23 02:43:57;;;;;;;41.70;8.53;;;;;;;;;;5137727;28;20039;-54
2024/03/23 02:46:23;;;;;;;28.37;8.23;;;;;;;;;;5135101;28;20288;-51
2024/03/23 02:48:48;;;;;;;32.73;7.50;;;;;;;;;;5133346;28;20268;-55
2024/03/23 02:51:14;;;;;;;29.88;7.70;;;;;;;;;;5137629;28;20053;-53
2024/03/23 02:53:39;;;;;;;30.73;7.43;;;;;;;;;;5137788;28;20027;-53
2024/03/23 02:56:05;;;;;;;21.57;7.23;;;;;;;;;;5137986;28;20079;-57
2024/03/23 02:58:31;;;;;;;28.95;7.47;;;;;;;;;;5135001;28;20032;-56
2024/03/23 03:00:56;;;;;;;24.47;6.57;;;;;;;;;;5134623;28;20028;-57
2024/03/23 03:03:22;;;;;;;22.10;7.70;;;;;;;;;;5133852;28;20324;-51
2024/03/23 03:05:47;;;;;;;36.55;7.05;;;;;;;;;;5130285;28;20275;-55
2024/03/23 03:08:12;;;;;;;46.63;7.67;;;;;;;;;;5133738;28;20058;-56
2024/03/23 03:10:38;;;;;;;35.92;8.05;;;;;;;;;;5137582;28;20387;-55
2024/03/23 03:13:03;;;;;;;26.93;7.27;;;;;;;;;;5133666;28;20040;-53
2024/03/23 03:15:29;;;;;;;21.35;5.63;;;;;;;;;;5124683;28;20059;-56
2024/03/23 03:17:54;;;;;;;33.93;8.40;;;;;;;;;;5133342;28;20043;-53
2024/03/23 03:20:23;;;;;;;30.15;6.65;;;;;;;;;;5137606;28;20093;-51
2024/03/23 03:22:48;;;;;;;20.52;6.35;;;;;;;;;;5118063;28;20031;-55
2024/03/23 03:25:14;;;;;;;23.20;7.72;;;;;;;;;;5128522;28;20028;-55
2024/03/23 03:27:39;;;;;;;14.20;4.83;;;;;;;;;;5137306;28;20039;-56
2024/03/23 03:30:07;;;;;;;22.33;6.22;;;;;;;;;;5130169;28;20032;-55
2024/03/23 03:32:32;;;;;;;23.08;7.22;;;;;;;;;;5125134;28;20091;-56
2024/03/23 03:34:58;;;;;;;24.47;6.23;;;;;;;;;;5137394;28;20028;-54
2024/03/23 03:37:23;;;;;;;13.90;5.93;;;;;;;;;;5134708;28;20272;-57
2024/03/23 03:39:49;;;;;;;24.15;6.22;;;;;;;;;;5133185;28;20302;-53
2024/03/23 03:42:14;;;;;;;36.13;6.13;;;;;;;;;;5128013;28;20122;-56
2024/03/23 03:44:40;;;;;;;22.73;6.28;;;;;;;;;;5137101;28;20034;-52
2024/03/23 03:47:05;;;;;;;32.27;6.27;;;;;;;;;;5123632;28;20028;-57
2024/03/23 03:49:31;;;;;;;22.50;6.25;;;;;;;;;;5135713;28;20353;-51
2024/03/23 03:51:56;;;;;;;27.57;5.60;;;;;;;;;;5136486;28;20032;-55
2024/03/23 03:54:22;;;;;;;16.92;4.90;;;;;;;;;;5136797;28;20027;-51
2024/03/23 03:56:47;;;;;;;24.55;5.90;;;;;;;;;;5134594;28;20107;-53
2024/03/23 03:59:13;;;;;;;36.10;6.30;;;;;;;;;;5116723;28;20051;-52
2024/03/23 04:01:38;;;;;;;50.10;9.80;;;;;;;;;;5127425;28;20269;-53
2024/03/23 04:04:04;;;;;;;55.73;15.43;;;;;;;;;;5136812;28;20283;-55
2024/03/23 04:06:29;;;;;;;51.83;11.32;;;;;;;;;;5136299;28;20035;-55
2024/03/23 04:08:54;;;;;;;59.40;13.73;;;;;;;;;;5131368;28;20078;-55
2024/03/23 04:11:20;;;;;;;58.45;15.35;;;;;;;;;;5131376;28;20019;-55
2024/03/23 04:13:45;;;;;;;51.10;11.37;;;;;;;;;;5136546;28;20040;-53
2024/03/23 04:16:11;;;;;;;48.95;10.15;;;;;;;;;;5130806;28;20023;-54
2024/03/23 04:18:38;;;;;;;32.50;8.02;;;;;;;;;;5134128;28;20039;-55
2024/03/23 04:21:03;;;;;;;37.33;7.07;;;;;;;;;;5131133;28;20039;-58
2024/03/23 04:23:28;;;;;;;19.43;6.87;;;;;;;;;;5136487;28;20035;-56
2024/03/23 04:25:54;;;;;;;25.93;5.83;;;;;;;;;;5133660;28;20264;-56
2024/03/23 04:28:20;;;;;;;27.27;5.70;;;;;;;;;;5136313;28;20061;-56
2024/03/23 04:30:45;;;;;;;34.83;6.67;;;;;;;;;;5135737;28;20053;-54
2024/03/23 04:33:11;;;;;;;27.00;4.60;;;;;;;;;;5117892;28;20020;-55
2024/03/23 04:35:36;;;;;;;16.30;5.00;;;;;;;;;;5135079;28;20039;-56
2024/03/23 04:38:02;;;;;;;22.20;5.07;;;;;;;;;;5131154;28;20294;-56
2024/03/23 04:40:27;;;;;;;23.08;5.22;;;;;;;;;;5135607;28;20024;-55
2024/03/23 04:42:53;;;;;;;20.10;5.10;;;;;;;;;;5134831;28;20051;-56
2024/03/23 04:45:19;;;;;;;25.27;5.80;;;;;;;;;;5129448;28;20259;-55
2024/03/23 04:47:44;;;;;;;24.27;5.80;;;;;;;;;;5129378;28;20095;-53
2024/03/23 04:50:13;;;;;;;33.47;7.17;;;;;;;;;;5134189;28;20028;-57
2024/03/23 04:52:38;;;;;;;23.77;6.28;;;;;;;;;;5126444;28;20024;-57
2024/03/23 04:55:04;;;;;;;21.60;5.37;;;;;;;;;;5129563;28;20066;-55
2024/03/23 04:57:29;;;;;;;30.50;6.30;;;;;;;;;;5121198;28;20293;-58
2024/03/23 04:59:55;;;;;;;23.30;5.37;;;;;;;;;;5120377;28;20268;-54
2024/03/23 05:02:20;;;;;;;40.07;6.23;;;;;;;;;;5135552;28;20036;-55
2024/03/23 05:04:47;;;;;;;20.08;4.97;;;;;;;;;;5135551;28;20048;-56
2024/03/23 05:07:13;;;;;;;28.80;5.70;;;;;;;;;;5130893;28;20061;-52
2024/03/23 05:09:39;;;;;;;22.40;5.63;;;;;;;;;;5135432;28;20051;-55
2024/03/23 05:12:05;;;;;;;31.60;5.75;;;;;;;;;;5133023;28;20091;-55
2024/03/23 05:14:30;;;;;;;23.23;5.73;;;;;;;;;;5129565;28;20098;-56
2024/03/23 05:16:56;;;;;;;25.67;5.33;;;;;;;;;;5122738;28;20329;-56
2024/03/23 05:19:22;;;;;;;41.85;6.30;;;;;;;;;;5131652;28;20059;-55
2024/03/23 05:21:47;;;;;;;20.02;4.25;;;;;;;;;;5135487;28;20036;-53
2024/03/23 05:24:13;;;;;;;20.92;4.72;;;;;;;;;;5135002;28;21143;-54
2024/03/23 05:26:38;;;;;;;16.97;4.27;;;;;;;;;;5118679;28;20061;-56
2024/03/23 05:29:04;;;;;;;21.63;3.87;;;;;;;;;;5129121;28;20266;-57
2024/03/23 05:31:30;;;;;;;20.97;5.00;;;;;;;;;;5135008;28;20030;-57
2024/03/23 05:33:56;;;;;;;23.92;7.13;;;;;;;;;;5132576;28;20031;-54
2024/03/23 05:36:24;;;;;;;37.25;10.30;;;;;;;;;;5124734;28;20101;-56
2024/03/23 05:38:49;;;;;;;67.97;13.45;;;;;;;;;;5129635;28;20020;-56
2024/03/23 05:41:15;;;;;;;49.43;11.10;;;;;;;;;;5135295;28;20099;-52
2024/03/23 05:43:40;;;;;;;48.40;11.73;;;;;;;;;;5121854;28;20276;-55
2024/03/23 05:46:07;;;;;;;21.90;5.80;;;;;;;;;;5130413;28;20294;-51
2024/03/23 05:48:33;;;;;;;27.90;4.55;;;;;;;;;;5132155;28;20032;-56
2024/03/23 05:50:58;;;;;;;28.40;5.93;;;;;;;;;;5130928;28;20038;-55
2024/03/23 05:53:24;;;;;;;21.10;4.73;;;;;;;;;;5138740;28;20276;-55
2024/03/23 05:55:50;;;;;;;28.00;4.97;;;;;;;;;;5138327;28;20035;-55
2024/03/23 05:58:16;;;;;;;32.28;6.82;;;;;;;;;;5138831;28;20043;-52
2024/03/23 06:00:42;;;;;;;18.00;4.55;;;;;;;;;;5139015;28;20036;-53
2024/03/23 06:03:08;;;;;;;17.98;3.78;;;;;;;;;;5131316;28;20024;-56
2024/03/23 06:05:33;;;;;;;20.25;4.72;;;;;;;;;;5133360;28;20064;-54
2024/03/23 06:07:58;;;;;;;22.07;4.77;;;;;;;;;;5132929;28;20028;-54
2024/03/23 06:10:24;;;;;;;17.23;4.47;;;;;;;;;;5136357;28;20053;-57
2024/03/23 06:12:51;;;;;;;22.93;4.63;;;;;;;;;;5134280;28;20320;-56
2024/03/23 06:15:18;;;;;;;17.10;4.57;;;;;;;;;;5136485;28;20323;-55
2024/03/23 06:17:43;;;;;;;19.38;4.53;;;;;;;;;;5132440;28;20048;-55
2024/03/23 06:20:10;;;;;;;14.73;3.70;;;;;;;;;;5131636;28;20034;-54
2024/03/23 06:22:35;;;;;;;26.13;4.13;;;;;;;;;;5132393;28;20062;-54
2024/03/23 06:25:00;;;;;;;21.87;4.57;;;;;;;;;;5138812;28;20483;-54
2024/03/23 06:27:25;;;;;;;15.37;3.93;;;;;;;;;;5138490;28;20091;-55
2024/03/23 06:29:51;;;;;;;24.98;4.65;;;;;;;;;;5134312;28;20028;-56
2024/03/23 06:32:17;;;;;;;19.43;4.47;;;;;;;;;;5132146;28;20023;-56
2024/03/23 06:34:42;;;;;;;13.60;4.47;;;;;;;;;;5127521;28;20282;-54
2024/03/23 06:37:09;;;;;;;44.87;5.30;;;;;;;;;;5131277;28;20286;-54
2024/03/23 06:39:35;;;;;;;19.35;3.83;;;;;;;;;;5137298;28;20028;-57
2024/03/23 06:42:00;;;;;;;15.30;3.80;;;;;;;;;;5132155;28;20058;-61
2024/03/23 06:44:26;;;;;;;13.23;3.73;;;;;;;;;;5138099;28;20263;-59
2024/03/23 06:46:51;;;;;;;17.87;3.43;;;;;;;;;;5128274;28;20291;-59
2024/03/23 06:49:16;;;;;;;21.10;3.87;;;;;;;;;;5138184;28;20027;-57
2024/03/23 06:51:42;;;;;;;19.00;4.37;;;;;;;;;;5138211;28;20028;-60
2024/03/23 06:54:08;;;;;;;25.75;4.88;;;;;;;;;;5137969;28;20027;-59
2024/03/23 06:56:33;;;;;;;14.73;5.30;;;;;;;;;;5133333;28;20035;-59
2024/03/23 06:58:59;;;;;;;12.20;4.03;;;;;;;;;;5123048;28;20292;-59
2024/03/23 07:01:24;;;;;;;25.83;3.97;;;;;;;;;;5136375;28;20267;-60
2024/03/23 07:03:49;;;;;;;11.53;3.93;;;;;;;;;;5137798;28;20058;-60
2024/03/23 07:06:15;;;;;;;14.98;4.88;;;;;;;;;;5132980;28;20403;-59
2024/03/23 07:08:40;;;;;;;17.80;4.30;;;;;;;;;;5127303;28;20035;-59
2024/03/23 07:11:06;;;;;;;26.03;4.80;;;;;;;;;;5125552;28;20291;-60
2024/03/23 07:13:31;;;;;;;16.47;5.03;;;;;;;;;;5131908;28;20028;-60
2024/03/23 07:15:59;;;;;;;21.95;4.03;;;;;;;;;;5129195;28;20260;-58
2024/03/23 07:18:25;;;;;;;19.83;5.78;;;;;;;;;;5124267;28;20031;-60
2024/03/23 07:20:54;;;;;;;21.95;4.63;;;;;;;;;;5128665;28;20058;-61
2024/03/23 07:23:19;;;;;;;29.48;5.68;;;;;;;;;;5137380;28;20042;-60
2024/03/23 07:25:45;;;;;;;30.63;6.57;;;;;;;;;;5137476;28;20024;-57
2024/03/23 07:28:10;;;;;;;37.77;8.33;;;;;;;;;;5125626;28;20036;-59
2024/03/23 07:30:35;;;;;;;49.57;10.90;;;;;;;;;;5136342;28;20024;-58
2024/03/23 07:33:01;;;;;;;39.50;9.32;;;;;;;;;;5137219;28;20047;-59
2024/03/23 07:35:26;;;;;;;45.80;10.03;;;;;;;;;;5136144;28;20053;-61
2024/03/23 07:37:52;;;;;;;48.90;11.47;;;;;;;;;;5125930;28;20321;-57
2024/03/23 07:40:17;;;;;;;34.40;8.50;;;;;;;;;;5116526;28;20272;-60
2024/03/23 07:42:42;;;;;;;38.40;9.50;;;;;;;;;;5128754;28;20296;-59
2024/03/23 07:45:09;;;;;;;36.17;7.28;;;;;;;;;;5124943;28;20028;-57
2024/03/23 07:47:34;;;;;;;43.03;8.50;;;;;;;;;;5136676;28;20042;-56
2024/03/23 07:50:00;;;;;;;32.93;8.97;;;;;;;;;;5136743;28;20023;-56
2024/03/23 07:52:28;;;;;;;31.10;8.80;;;;;;;;;;5119353;28;20273;-58
2024/03/23 07:54:53;;;;;;;21.77;5.63;;;;;;;;;;5135245;28;20035;-58
2024/03/23 07:57:19;;;;;;;30.40;7.40;;;;;;;;;;5136310;28;20034;-58
2024/03/23 07:59:44;;;;;;;26.73;8.07;;;;;;;;;;5136798;28;20291;-59
2024/03/23 08:02:10;;;;;;;42.93;9.80;;;;;;;;;;5128676;28;20043;-59
2024/03/23 08:04:36;;;;;;;26.02;7.18;;;;;;;;;;5126448;28;20032;-59
2024/03/23 08:07:01;;;;;;;31.13;5.63;;;;;;;;;;5123230;28;20046;-57
2024/03/23 08:09:27;;;;;;;21.70;4.63;;;;;;;;;;5136236;28;20271;-56
2024/03/23 08:11:52;;;;;;;25.23;6.83;;;;;;;;;;5132093;28;20252;-57
2024/03/23 08:14:19;;;;;;;18.45;4.82;;;;;;;;;;5129193;28;20084;-56
2024/03/23 08:16:48;;;;;;;16.97;4.17;;;;;;;;;;5131980;28;20053;-55
2024/03/23 08:19:14;;;;;;;20.27;4.93;;;;;;;;;;5134510;28;20299;-58
2024/03/23 08:21:40;;;;;;;12.63;3.80;;;;;;;;;;5126270;28;20271;-55
2024/03/23 08:24:06;;;;;;;20.73;4.82;;;;;;;;;;5132367;28;20091;-55
2024/03/23 08:26:31;;;;;;;34.97;9.67;;;;;;;;;;5136035;28;20042;-56
2024/03/23 08:28:57;;;;;;;15.37;4.10;;;;;;;;;;5134375;28;20272;-58
2024/03/23 08:31:22;;;;;;;18.57;5.73;;;;;;;;;;5136058;28;20248;-57
2024/03/23 08:33:47;;;;;;;18.63;4.30;;;;;;;;;;5135824;28;20024;-56
2024/03/23 08:36:14;;;;;;;21.33;3.97;;;;;;;;;;5136038;28;20103;-57
2024/03/23 08:38:39;;;;;;;7.28;2.83;;;;;;;;;;5134170;28;20032;-58
2024/03/23 08:41:08;;;;;;;13.00;2.77;;;;;;;;;;5132356;28;20078;-53
2024/03/23 08:43:37;;;;;;;14.43;2.87;;;;;;;;;;5130637;28;20028;-56
2024/03/23 08:46:07;;;;;;;22.20;3.67;;;;;;;;;;5129058;28;20249;-57
2024/03/23 08:48:33;;;;;;;19.90;3.93;;;;;;;;;;5122484;28;20271;-56
2024/03/23 08:51:03;;;;;;;16.67;3.80;;;;;;;;;;5135722;28;20257;-58
2024/03/23 08:53:29;;;;;;;13.73;3.53;;;;;;;;;;5135493;28;20251;-57
2024/03/23 08:55:56;;;;;;;19.67;4.97;;;;;;;;;;5126354;28;20258;-57
2024/03/23 08:58:24;;;;;;;18.23;4.57;;;;;;;;;;5124198;28;20276;-56
2024/03/23 09:00:49;;;;;;;25.97;5.33;;;;;;;;;;5135779;28;20044;-54
2024/03/23 09:03:15;;;;;;;13.13;3.33;;;;;;;;;;5135088;28;20266;-54
2024/03/23 09:05:42;;;;;;;13.23;3.07;;;;;;;;;;5134827;28;20055;-54
2024/03/23 09:08:08;;;;;;;17.37;3.40;;;;;;;;;;5124534;28;20264;-54
2024/03/23 09:10:40;;;;;;;15.40;3.25;;;;;;;;;;5135648;28;20035;-56
2024/03/23 09:13:06;;;;;;;9.70;2.10;;;;;;;;;;5133192;28;20032;-58
2024/03/23 09:15:35;;;;;;;11.37;2.57;;;;;;;;;;5127589;28;20336;-58
2024/03/23 09:18:00;;;;;;;13.63;2.23;;;;;;;;;;5133465;28;20039;-59
2024/03/23 09:20:25;;;;;;;10.60;2.10;;;;;;;;;;5135340;28;20260;-57
2024/03/23 09:22:51;;;;;;;21.63;4.53;;;;;;;;;;5134413;28;20296;-56
2024/03/23 09:25:16;;;;;;;27.37;7.60;;;;;;;;;;5134091;28;20272;-55
2024/03/23 09:27:42;;;;;;;20.90;5.50;;;;;;;;;;5134494;28;20339;-54
2024/03/23 09:30:07;;;;;;;23.90;4.67;;;;;;;;;;5133507;28;20042;-56
2024/03/23 09:32:33;;;;;;;22.15;5.07;;;;;;;;;;5130796;28;20057;-56
2024/03/23 09:34:59;;;;;;;21.52;3.75;;;;;;;;;;5123691;28;20032;-56
2024/03/23 09:37:24;;;;;;;13.02;3.38;;;;;;;;;;5133588;28;20028;-58
2024/03/23 09:39:50;;;;;;;10.73;3.30;;;;;;;;;;5125509;28;20100;-57
2024/03/23 09:42:16;;;;;;;15.27;3.47;;;;;;;;;;5121745;28;20028;-56
2024/03/23 09:44:41;;;;;;;13.18;2.38;;;;;;;;;;5123208;28;20053;-59
2024/03/23 09:47:07;;;;;;;7.80;1.80;;;;;;;;;;5133840;28;20032;-56
2024/03/23 09:49:36;;;;;;;9.95;2.55;;;;;;;;;;5130381;28;20069;-57
2024/03/23 09:52:02;;;;;;;9.03;2.73;;;;;;;;;;5134573;28;20089;-57
2024/03/23 09:54:28;;;;;;;6.90;2.67;;;;;;;;;;5132451;28;20024;-60
2024/03/23 09:56:53;;;;;;;5.53;2.50;;;;;;;;;;5115093;28;20031;-60
2024/03/23 09:59:19;;;;;;;13.88;2.10;;;;;;;;;;5124212;28;20133;-57
2024/03/23 10:01:44;;;;;;;16.17;2.80;;;;;;;;;;5133196;28;20035;-58
2024/03/23 10:04:09;;;;;;;10.00;2.57;;;;;;;;;;5134845;28;20028;-56
2024/03/23 10:06:36;;;;;;;11.98;2.85;;;;;;;;;;5111161;28;20043;-58
2024/03/23 10:09:01;;;;;;;15.63;4.25;;;;;;;;;;5125026;28;20031;-55
2024/03/23 10:11:29;;;;;;;9.88;3.35;;;;;;;;;;5118138;28;20039;-57
2024/03/23 10:13:56;;;;;;;11.87;3.70;;;;;;;;;;5123712;28;20107;-59
2024/03/23 10:16:22;;;;;;;15.37;3.53;;;;;;;;;;5130590;28;20283;-56
2024/03/23 10:18:48;;;;;;;12.18;3.05;;;;;;;;;;5127314;28;20024;-53
2024/03/23 10:21:14;;;;;;;10.80;3.00;;;;;;;;;;5132435;28;20047;-57
2024/03/23 10:23:39;;;;;;;;;;;;;;;;;;5126991;28;20051;-55
2024/03/23 10:26:15;;;;;;;23.17;3.67;;;;;;;;;;5118379;28;19908;-57
2024/03/23 10:28:51;;;;;;;16.57;3.10;;;;;;;;;;5132701;28;20038;-57
2024/03/23 10:31:16;;;;;;;18.07;3.23;;;;;;;;;;5120934;28;20264;-58
2024/03/23 10:33:45;;;;;;;15.63;3.90;;;;;;;;;;5123670;28;20292;-55
2024/03/23 10:36:11;;;;;;;6.43;2.43;;;;;;;;;;5127962;28;20023;-55
2024/03/23 10:38:37;;;;;;;19.30;3.28;;;;;;;;;;5128405;28;20081;-57
2024/03/23 10:41:02;;;;;;;;;;;;;;;;;;5131969;28;20036;-55
2024/03/23 10:43:29;;;;;;;18.03;4.60;;;;;;;;;;5134523;28;19914;-56
2024/03/23 10:45:54;;;;;;;;;;;;;;;;;;5132400;28;20057;-59
2024/03/23 10:48:19;;;;;;;16.75;3.65;;;;;;;;;;5136580;28;19912;-57
2024/03/23 10:50:45;;;;;;;15.43;3.83;;;;;;;;;;5137954;28;20043;-57
2024/03/23 10:53:11;;;;;;;11.98;2.70;;;;;;;;;;5137965;28;20252;-57
2024/03/23 10:55:38;;;;;;;10.37;2.63;;;;;;;;;;5136611;28;20023;-58
2024/03/23 10:58:03;;;;;;;;;;;;;;;;;;5125341;28;20036;-57
2024/03/23 11:00:28;;;;;;;10.03;2.20;;;;;;;;;;5118276;28;19929;-56
2024/03/23 11:02:54;;;;;;;14.40;2.07;;;;;;;;;;5136091;28;20042;-59
2024/03/23 11:05:25;;;;;;;15.60;2.30;;;;;;;;;;5135688;28;20023;-57
2024/03/23 11:07:51;;;;;;;7.53;2.07;;;;;;;;;;5117005;28;20289;-56
2024/03/23 11:10:30;;;;;;;9.43;2.35;;;;;;;;;;5134443;28;20039;-58
2024/03/23 11:12:58;;;;;;;10.87;2.37;;;;;;;;;;5127117;28;20032;-56
2024/03/23 11:15:23;;;;;;;19.37;3.60;;;;;;;;;;5118685;28;20032;-58
2024/03/23 11:18:08;;;;;;;16.87;3.30;;;;;;;;;;5131255;28;20035;-57
2024/03/23 11:20:36;;;;;;;15.30;3.30;;;;;;;;;;5136791;28;20035;-55
2024/03/23 11:23:02;;;;;;;12.93;3.17;;;;;;;;;;5125985;28;20058;-55
2024/03/23 11:25:28;;;;;;;16.38;3.72;;;;;;;;;;5120883;28;20028;-58
2024/03/23 11:27:56;;;;;;;17.52;4.40;;;;;;;;;;5136924;28;20035;-56
2024/03/23 11:30:23;;;;;;;11.33;2.70;;;;;;;;;;5117627;28;20083;-55
2024/03/23 11:32:49;;;;;;;12.10;2.73;;;;;;;;;;5136830;28;20024;-56
2024/03/23 11:35:34;;;;;;;19.13;4.27;;;;;;;;;;5129757;28;20031;-56
2024/03/23 11:38:03;;;;;;;12.20;3.97;;;;;;;;;;5137028;28;20035;-53
2024/03/23 11:40:29;;;;;;;11.30;3.17;;;;;;;;;;5136546;28;20031;-56
2024/03/23 11:42:58;;;;;;;11.15;2.80;;;;;;;;;;5125410;28;20031;-57
2024/03/23 11:45:23;;;;;;;18.97;5.27;;;;;;;;;;5108924;28;20107;-58
2024/03/23 11:47:48;;;;;;;15.27;4.00;;;;;;;;;;5129006;28;20028;-56
2024/03/23 11:50:20;;;;;;;15.85;2.92;;;;;;;;;;5135542;28;20035;-56
2024/03/23 11:52:46;;;;;;;7.30;2.30;;;;;;;;;;5122459;28;20028;-57
2024/03/23 11:55:12;;;;;;;14.53;2.80;;;;;;;;;;5131519;28;20046;-56
2024/03/23 11:57:37;;;;;;;14.32;4.00;;;;;;;;;;5136341;28;20027;-59
2024/03/23 12:00:19;;;;;;;13.30;2.85;;;;;;;;;;5133739;28;20036;-58
2024/03/23 12:02:45;;;;;;;14.77;2.53;;;;;;;;;;5127096;28;20047;-58
2024/03/23 12:05:14;;;;;;;12.50;2.67;;;;;;;;;;5133063;28;20031;-58
2024/03/23 12:07:40;;;;;;;11.90;2.87;;;;;;;;;;5135039;28;20043;-57
2024/03/23 12:10:06;;;;;;;14.80;3.53;;;;;;;;;;5133896;28;20024;-58
2024/03/23 12:12:31;;;;;;;12.57;3.33;;;;;;;;;;5135218;28;20031;-58
2024/03/23 12:15:05;;;;;;;16.52;3.38;;;;;;;;;;5135707;28;20035;-57
2024/03/23 12:17:31;;;;;;;11.00;1.83;;;;;;;;;;5134100;28;20069;-58
2024/03/23 12:19:57;;;;;;;;;;;;;;;;;;5134983;28;20028;-56
2024/03/23 12:22:23;;;;;;;14.27;3.90;;;;;;;;;;5132936;28;19907;-59
2024/03/23 12:24:49;;;;;;;;;;;;;;;;;;5133722;28;20060;-59
2024/03/23 12:27:15;;;;;;;15.03;4.23;;;;;;;;;;5134714;28;19912;-58
2024/03/23 12:29:43;;;;;;;11.33;3.97;;;;;;;;;;5134558;28;20054;-57
2024/03/23 12:32:08;;;;;;;9.57;2.50;;;;;;;;;;5135671;28;20019;-58
2024/03/23 12:34:34;;;;;;;10.30;2.85;;;;;;;;;;5134501;28;20028;-57
2024/03/23 12:36:59;;;;;;;12.95;3.70;;;;;;;;;;5128542;28;20043;-56
2024/03/23 12:39:24;;;;;;;16.00;4.37;;;;;;;;;;5131691;28;20043;-55
2024/03/23 12:41:50;;;;;;;9.97;2.60;;;;;;;;;;5133463;28;20059;-55
2024/03/23 12:44:15;;;;;;;7.97;2.00;;;;;;;;;;5132338;28;20266;-57
2024/03/23 12:46:41;;;;;;;16.60;2.63;;;;;;;;;;5114299;28;20046;-57
2024/03/23 12:49:07;;;;;;;10.60;2.80;;;;;;;;;;5119849;28;20028;-56
2024/03/23 12:51:32;;;;;;;11.57;3.25;;;;;;;;;;5126423;28;20035;-56
2024/03/23 12:53:58;;;;;;;12.77;3.33;;;;;;;;;;5127822;28;20045;-59
2024/03/23 12:56:23;;;;;;;10.65;2.92;;;;;;;;;;5124668;28;20035;-57
2024/03/23 12:58:51;;;;;;;14.35;2.58;;;;;;;;;;5116193;28;20027;-56
2024/03/23 13:01:16;;;;;;;8.97;3.03;;;;;;;;;;5132948;28;20035;-57
2024/03/23 13:03:44;;;;;;;8.05;1.88;;;;;;;;;;5133086;28;20031;-55
2024/03/23 13:06:10;;;;;;;11.03;2.23;;;;;;;;;;5126300;28;20036;-57
2024/03/23 13:08:35;;;;;;;7.28;2.20;;;;;;;;;;5130464;28;20046;-58
2024/03/23 13:11:00;;;;;;;13.02;2.55;;;;;;;;;;5131875;28;20044;-58
2024/03/23 13:13:26;;;;;;;13.63;2.63;;;;;;;;;;5130453;28;20104;-58
2024/03/23 13:15:51;;;;;;;14.50;3.72;;;;;;;;;;5126536;28;20280;-57
2024/03/23 13:18:16;;;;;;;11.25;2.22;;;;;;;;;;5128796;28;20036;-55
2024/03/23 13:20:42;;;;;;;7.43;1.85;;;;;;;;;;5118258;28;20214;-58
2024/03/23 13:23:07;;;;;;;12.77;2.00;;;;;;;;;;5133683;28;20095;-58
2024/03/23 13:25:33;;;;;;;11.43;2.28;;;;;;;;;;5130673;28;20028;-58
2024/03/23 13:27:58;;;;;;;;;;;;;;;;;;5132484;28;20055;-57
2024/03/23 13:30:24;;;;;;;9.57;2.37;;;;;;;;;;5132831;28;19908;-57
2024/03/23 13:32:50;;;;;;;11.82;1.90;;;;;;;;;;5129141;28;20028;-57
2024/03/23 13:35:16;;;;;;;;;;;;;;;;;;5125862;28;20023;-58
2024/03/23 13:37:41;;;;;;;5.93;1.60;;;;;;;;;;5118768;28;19918;-56
2024/03/23 13:40:07;;;;;;;9.07;2.37;;;;;;;;;;5123250;28;20035;-56
2024/03/23 13:42:32;;;;;;;8.80;1.50;;;;;;;;;;5127959;28;20095;-59
2024/03/23 13:44:57;;;;;;;7.77;1.70;;;;;;;;;;5128838;28;20027;-59
2024/03/23 13:47:23;;;;;;;4.23;1.40;;;;;;;;;;5134057;28;20129;-58
2024/03/23 13:49:48;;;;;;;3.67;1.10;;;;;;;;;;5129813;28;20024;-55
2024/03/23 13:52:14;;;;;;;7.82;2.22;;;;;;;;;;5131998;28;20110;-56
2024/03/23 13:54:45;;;;;;;6.15;1.42;;;;;;;;;;5112640;28;20028;-55
2024/03/23 13:57:10;;;;;;;9.13;1.50;;;;;;;;;;5122559;28;20028;-57
2024/03/23 13:59:36;;;;;;;10.05;3.92;;;;;;;;;;5131869;28;20108;-54
2024/03/23 14:02:01;;;;;;;15.43;2.85;;;;;;;;;;5133457;28;20024;-58
2024/03/23 14:04:27;;;;;;;21.50;5.45;;;;;;;;;;5134803;28;20028;-57
2024/03/23 14:06:52;;;;;;;13.05;3.88;;;;;;;;;;5125378;28;20031;-58
2024/03/23 14:09:23;;;;;;;13.30;2.80;;;;;;;;;;5135798;28;20030;-58
2024/03/23 14:11:48;;;;;;;11.83;2.37;;;;;;;;;;5134801;28;20076;-55
2024/03/23 14:14:16;;;;;;;10.43;2.05;;;;;;;;;;5138653;28;20024;-57
2024/03/23 14:16:42;;;;;;;10.27;1.87;;;;;;;;;;5132340;28;20092;-57
2024/03/23 14:19:07;;;;;;;7.53;2.35;;;;;;;;;;5137090;28;20028;-58
2024/03/23 14:21:34;;;;;;;8.23;1.73;;;;;;;;;;5118474;28;20091;-57
2024/03/23 14:24:00;;;;;;;7.97;2.20;;;;;;;;;;5138378;28;20031;-62